sensor_id;sensor_type;location;lat;lon;timestamp;P1;durP1;ratioP1;P2;durP2;ratioP2
19727;SDS011;10015;52.530;13.390;2022-10-17T04:17:20;5.13;;;4.33;;
19727;SDS011;10015;52.530;13.390;2022-10-17T04:19:50;6.00;;;4.33;;
19727;SDS011;10015;52.530;13.390;2022-10-17T04:22:17;7.23;;;4.70;;
19727;SDS011;10015;52.530;13.390;2022-10-17T04:24:43;7.37;;;4.40;;
19727;SDS011;10015;52.530;13.390;2022-10-17T04:27:25;6.17;;;4.73;;
19727;SDS011;10015;52.530;13.390;2022-10-17T04:29:52;6.23;;;4.63;;
19727;SDS011;10015;52.530;13.390;2022-10-17T04:32:23;5.90;;;5.00;;
19727;SDS011;10015;52.530;13.390;2022-10-17T04:34:57;8.00;;;4.67;;
19727;SDS011;10015;52.530;13.390;2022-10-17T04:37:23;7.30;;;4.77;;
19727;SDS011;10015;52.530;13.390;2022-10-17T04:39:51;7.00;;;4.50;;
19727;SDS011;10015;52.530;13.390;2022-10-17T04:42:17;5.23;;;4.70;;
19727;SDS011;10015;52.530;13.390;2022-10-17T04:44:44;5.80;;;4.70;;
19727;SDS011;10015;52.530;13.390;2022-10-17T04:47:12;8.07;;;4.73;;
19727;SDS011;10015;52.530;13.390;2022-10-17T04:49:38;7.23;;;4.70;;
19727;SDS011;10015;52.530;13.390;2022-10-17T04:52:08;6.87;;;5.00;;
19727;SDS011;10015;52.530;13.390;2022-10-17T04:54:44;8.40;;;5.10;;
19727;SDS011;10015;52.530;13.390;2022-10-17T04:57:12;5.27;;;4.63;;
19727;SDS011;10015;52.530;13.390;2022-10-17T04:59:39;5.97;;;3.87;;
19727;SDS011;10015;52.530;13.390;2022-10-17T05:02:23;5.43;;;4.73;;
19727;SDS011;10015;52.530;13.390;2022-10-17T05:04:50;6.10;;;4.57;;
19727;SDS011;10015;52.530;13.390;2022-10-17T05:07:16;6.70;;;4.30;;
19727;SDS011;10015;52.530;13.390;2022-10-17T05:09:42;6.57;;;5.17;;
19727;SDS011;10015;52.530;13.390;2022-10-17T05:12:08;7.63;;;4.70;;
19727;SDS011;10015;52.530;13.390;2022-10-17T05:14:34;9.57;;;5.70;;
19727;SDS011;10015;52.530;13.390;2022-10-17T05:17:00;11.03;;;4.87;;
19727;SDS011;10015;52.530;13.390;2022-10-17T05:19:27;7.10;;;4.93;;
19727;SDS011;10015;52.530;13.390;2022-10-17T05:21:53;9.37;;;5.03;;
19727;SDS011;10015;52.530;13.390;2022-10-17T05:24:19;6.57;;;5.00;;
19727;SDS011;10015;52.530;13.390;2022-10-17T05:26:48;6.67;;;4.93;;
19727;SDS011;10015;52.530;13.390;2022-10-17T05:29:16;6.00;;;4.53;;
19727;SDS011;10015;52.530;13.390;2022-10-17T05:31:48;8.57;;;5.20;;
19727;SDS011;10015;52.530;13.390;2022-10-17T05:34:13;8.63;;;4.90;;
19727;SDS011;10015;52.530;13.390;2022-10-17T05:36:40;7.30;;;5.07;;
19727;SDS011;10015;52.530;13.390;2022-10-17T05:39:07;5.33;;;4.83;;
19727;SDS011;10015;52.530;13.390;2022-10-17T05:41:33;7.07;;;5.23;;
19727;SDS011;10015;52.530;13.390;2022-10-17T05:43:59;8.73;;;5.33;;
19727;SDS011;10015;52.530;13.390;2022-10-17T05:46:39;11.00;;;4.90;;
19727;SDS011;10015;52.530;13.390;2022-10-17T05:49:05;8.57;;;5.37;;
19727;SDS011;10015;52.530;13.390;2022-10-17T05:51:34;7.47;;;5.30;;
19727;SDS011;10015;52.530;13.390;2022-10-17T05:54:03;7.23;;;5.17;;
19727;SDS011;10015;52.530;13.390;2022-10-17T05:56:31;8.60;;;5.50;;
19727;SDS011;10015;52.530;13.390;2022-10-17T05:58:58;7.00;;;4.77;;
19727;SDS011;10015;52.530;13.390;2022-10-17T06:01:47;7.90;;;5.57;;
19727;SDS011;10015;52.530;13.390;2022-10-17T06:04:13;7.77;;;5.10;;
19727;SDS011;10015;52.530;13.390;2022-10-17T06:06:39;5.93;;;5.00;;
19727;SDS011;10015;52.530;13.390;2022-10-17T06:09:05;7.67;;;5.03;;
19727;SDS011;10015;52.530;13.390;2022-10-17T06:11:35;8.27;;;4.63;;
19727;SDS011;10015;52.530;13.390;2022-10-17T06:14:02;9.60;;;5.63;;
19727;SDS011;10015;52.530;13.390;2022-10-17T06:16:28;8.93;;;5.53;;
19727;SDS011;10015;52.530;13.390;2022-10-17T06:19:02;6.87;;;5.53;;
19727;SDS011;10015;52.530;13.390;2022-10-17T06:21:28;6.23;;;4.80;;
19727;SDS011;10015;52.530;13.390;2022-10-17T06:24:03;10.30;;;5.73;;
19727;SDS011;10015;52.530;13.390;2022-10-17T06:26:33;8.47;;;5.70;;
19727;SDS011;10015;52.530;13.390;2022-10-17T06:28:59;9.83;;;5.20;;
19727;SDS011;10015;52.530;13.390;2022-10-17T06:31:30;10.40;;;5.70;;
19727;SDS011;10015;52.530;13.390;2022-10-17T06:33:56;8.73;;;5.33;;
19727;SDS011;10015;52.530;13.390;2022-10-17T06:36:22;11.33;;;5.70;;
19727;SDS011;10015;52.530;13.390;2022-10-17T06:38:49;14.07;;;5.47;;
19727;SDS011;10015;52.530;13.390;2022-10-17T06:41:23;7.00;;;5.37;;
19727;SDS011;10015;52.530;13.390;2022-10-17T06:43:51;8.17;;;5.53;;
19727;SDS011;10015;52.530;13.390;2022-10-17T06:46:45;8.60;;;5.30;;
19727;SDS011;10015;52.530;13.390;2022-10-17T06:49:19;8.33;;;5.60;;
19727;SDS011;10015;52.530;13.390;2022-10-17T06:51:50;7.50;;;5.37;;
19727;SDS011;10015;52.530;13.390;2022-10-17T06:54:20;9.70;;;5.77;;
19727;SDS011;10015;52.530;13.390;2022-10-17T06:56:58;14.10;;;5.63;;
19727;SDS011;10015;52.530;13.390;2022-10-17T06:59:56;10.30;;;5.77;;
19727;SDS011;10015;52.530;13.390;2022-10-17T07:02:28;8.80;;;5.63;;
19727;SDS011;10015;52.530;13.390;2022-10-17T07:04:57;11.03;;;5.40;;
19727;SDS011;10015;52.530;13.390;2022-10-17T07:07:23;11.90;;;5.90;;
19727;SDS011;10015;52.530;13.390;2022-10-17T07:09:51;9.87;;;5.93;;
19727;SDS011;10015;52.530;13.390;2022-10-17T07:12:18;9.33;;;5.63;;
19727;SDS011;10015;52.530;13.390;2022-10-17T07:14:45;13.27;;;5.33;;
19727;SDS011;10015;52.530;13.390;2022-10-17T07:17:12;8.53;;;5.00;;
19727;SDS011;10015;52.530;13.390;2022-10-17T07:19:38;6.63;;;5.23;;
19727;SDS011;10015;52.530;13.390;2022-10-17T07:22:06;10.27;;;4.80;;
19727;SDS011;10015;52.530;13.390;2022-10-17T07:24:34;6.97;;;5.13;;
19727;SDS011;10015;52.530;13.390;2022-10-17T07:27:11;7.37;;;5.13;;
19727;SDS011;10015;52.530;13.390;2022-10-17T07:29:37;8.27;;;4.67;;
19727;SDS011;10015;52.530;13.390;2022-10-17T07:32:08;7.27;;;4.77;;
19727;SDS011;10015;52.530;13.390;2022-10-17T07:34:34;9.70;;;4.70;;
19727;SDS011;10015;52.530;13.390;2022-10-17T07:37:01;8.17;;;4.60;;
19727;SDS011;10015;52.530;13.390;2022-10-17T07:39:28;5.60;;;4.20;;
19727;SDS011;10015;52.530;13.390;2022-10-17T07:41:54;7.20;;;4.50;;
19727;SDS011;10015;52.530;13.390;2022-10-17T07:44:21;8.97;;;4.40;;
19727;SDS011;10015;52.530;13.390;2022-10-17T07:46:50;7.10;;;4.30;;
19727;SDS011;10015;52.530;13.390;2022-10-17T07:49:17;8.30;;;3.73;;
19727;SDS011;10015;52.530;13.390;2022-10-17T07:51:43;9.93;;;4.20;;
19727;SDS011;10015;52.530;13.390;2022-10-17T07:54:09;9.57;;;4.23;;
19727;SDS011;10015;52.530;13.390;2022-10-17T07:56:35;6.00;;;3.73;;
19727;SDS011;10015;52.530;13.390;2022-10-17T07:59:01;7.37;;;3.90;;
19727;SDS011;10015;52.530;13.390;2022-10-17T08:01:27;5.57;;;3.77;;
19727;SDS011;10015;52.530;13.390;2022-10-17T08:03:53;7.63;;;4.23;;
19727;SDS011;10015;52.530;13.390;2022-10-17T08:06:19;7.77;;;4.17;;
19727;SDS011;10015;52.530;13.390;2022-10-17T08:08:46;6.40;;;3.47;;
19727;SDS011;10015;52.530;13.390;2022-10-17T08:11:12;8.93;;;3.80;;
19727;SDS011;10015;52.530;13.390;2022-10-17T08:13:39;6.30;;;3.37;;
19727;SDS011;10015;52.530;13.390;2022-10-17T08:16:07;5.33;;;3.53;;
19727;SDS011;10015;52.530;13.390;2022-10-17T08:18:37;7.30;;;4.13;;
19727;SDS011;10015;52.530;13.390;2022-10-17T08:21:05;6.40;;;3.40;;
19727;SDS011;10015;52.530;13.390;2022-10-17T08:23:32;8.43;;;3.87;;
19727;SDS011;10015;52.530;13.390;2022-10-17T08:26:03;8.63;;;3.43;;
19727;SDS011;10015;52.530;13.390;2022-10-17T08:28:36;5.97;;;3.43;;
19727;SDS011;10015;52.530;13.390;2022-10-17T08:31:10;6.23;;;3.33;;
19727;SDS011;10015;52.530;13.390;2022-10-17T08:33:39;5.57;;;3.20;;
19727;SDS011;10015;52.530;13.390;2022-10-17T08:36:07;4.43;;;3.03;;
19727;SDS011;10015;52.530;13.390;2022-10-17T08:38:34;8.30;;;3.00;;
19727;SDS011;10015;52.530;13.390;2022-10-17T08:41:03;6.13;;;3.20;;
19727;SDS011;10015;52.530;13.390;2022-10-17T08:46:16;3.78;;;3.20;;
19727;SDS011;10015;52.530;13.390;2022-10-17T08:48:44;8.75;;;3.25;;
19727;SDS011;10015;52.530;13.390;2022-10-17T08:51:17;3.85;;;3.13;;
19727;SDS011;10015;52.530;13.390;2022-10-17T08:54:37;4.93;;;3.00;;
19727;SDS011;10015;52.530;13.390;2022-10-17T08:56:48;7.38;;;2.97;;
19727;SDS011;10015;52.530;13.390;2022-10-17T08:59:16;5.20;;;2.90;;
19727;SDS011;10015;52.530;13.390;2022-10-17T09:01:54;5.82;;;2.92;;
19727;SDS011;10015;52.530;13.390;2022-10-17T09:05:41;6.85;;;2.70;;
19727;SDS011;10015;52.530;13.390;2022-10-17T09:07:52;5.90;;;3.17;;
19727;SDS011;10015;52.530;13.390;2022-10-17T09:10:53;4.22;;;2.50;;
19727;SDS011;10015;52.530;13.390;2022-10-17T09:18:37;5.03;;;2.58;;
19727;SDS011;10015;52.530;13.390;2022-10-17T09:21:20;5.30;;;2.75;;
19727;SDS011;10015;52.530;13.390;2022-10-17T09:24:08;5.05;;;2.75;;
19727;SDS011;10015;52.530;13.390;2022-10-17T09:26:50;3.15;;;2.63;;
19727;SDS011;10015;52.530;13.390;2022-10-17T09:29:21;3.97;;;2.55;;
19727;SDS011;10015;52.530;13.390;2022-10-17T09:34:48;6.00;;;2.90;;
19727;SDS011;10015;52.530;13.390;2022-10-17T09:37:17;4.88;;;2.67;;
19727;SDS011;10015;52.530;13.390;2022-10-17T09:39:46;7.93;;;2.75;;
19727;SDS011;10015;52.530;13.390;2022-10-17T09:42:14;4.20;;;2.78;;
19727;SDS011;10015;52.530;13.390;2022-10-17T09:47:49;4.93;;;3.10;;
19727;SDS011;10015;52.530;13.390;2022-10-17T09:50:46;5.78;;;3.35;;
19727;SDS011;10015;52.530;13.390;2022-10-17T09:53:14;8.10;;;2.95;;
19727;SDS011;10015;52.530;13.390;2022-10-17T09:55:50;3.95;;;2.83;;
19727;SDS011;10015;52.530;13.390;2022-10-17T09:58:21;4.10;;;2.33;;
19727;SDS011;10015;52.530;13.390;2022-10-17T10:00:47;7.32;;;3.00;;
19727;SDS011;10015;52.530;13.390;2022-10-17T10:05:44;3.10;;;2.33;;
19727;SDS011;10015;52.530;13.390;2022-10-17T10:08:22;5.55;;;3.20;;
19727;SDS011;10015;52.530;13.390;2022-10-17T10:11:03;7.07;;;3.03;;
19727;SDS011;10015;52.530;13.390;2022-10-17T10:13:32;5.25;;;2.80;;
19727;SDS011;10015;52.530;13.390;2022-10-17T10:16:42;6.40;;;3.05;;
19727;SDS011;10015;52.530;13.390;2022-10-17T10:18:55;5.32;;;2.70;;
19727;SDS011;10015;52.530;13.390;2022-10-17T10:21:22;4.65;;;3.20;;
19727;SDS011;10015;52.530;13.390;2022-10-17T10:24:03;4.43;;;2.70;;
19727;SDS011;10015;52.530;13.390;2022-10-17T10:31:49;4.85;;;2.80;;
19727;SDS011;10015;52.530;13.390;2022-10-17T10:34:19;4.57;;;2.42;;
19727;SDS011;10015;52.530;13.390;2022-10-17T10:36:57;4.18;;;2.60;;
19727;SDS011;10015;52.530;13.390;2022-10-17T10:42:19;6.32;;;2.97;;
19727;SDS011;10015;52.530;13.390;2022-10-17T10:45:12;6.80;;;3.20;;
19727;SDS011;10015;52.530;13.390;2022-10-17T10:47:49;5.65;;;3.08;;
19727;SDS011;10015;52.530;13.390;2022-10-17T10:50:24;3.63;;;2.60;;
19727;SDS011;10015;52.530;13.390;2022-10-17T10:53:09;5.20;;;2.55;;
19727;SDS011;10015;52.530;13.390;2022-10-17T10:56:08;5.65;;;2.50;;
19727;SDS011;10015;52.530;13.390;2022-10-17T10:58:42;4.53;;;2.92;;
19727;SDS011;10015;52.530;13.390;2022-10-17T11:01:55;5.07;;;2.42;;
19727;SDS011;10015;52.530;13.390;2022-10-17T11:04:12;6.80;;;3.00;;
19727;SDS011;10015;52.530;13.390;2022-10-17T11:06:43;5.18;;;2.60;;
19727;SDS011;10015;52.530;13.390;2022-10-17T11:09:12;3.80;;;2.38;;
19727;SDS011;10015;52.530;13.390;2022-10-17T11:12:01;7.18;;;2.60;;
19727;SDS011;10015;52.530;13.390;2022-10-17T11:22:51;2.80;;;2.20;;
19727;SDS011;10015;52.530;13.390;2022-10-17T11:25:32;4.85;;;2.20;;
19727;SDS011;10015;52.530;13.390;2022-10-17T11:28:10;4.07;;;2.60;;
19727;SDS011;10015;52.530;13.390;2022-10-17T11:34:15;4.05;;;2.30;;
19727;SDS011;10015;52.530;13.390;2022-10-17T11:36:38;3.95;;;2.33;;
19727;SDS011;10015;52.530;13.390;2022-10-17T11:39:11;3.05;;;2.30;;
19727;SDS011;10015;52.530;13.390;2022-10-17T11:41:47;6.95;;;2.65;;
19727;SDS011;10015;52.530;13.390;2022-10-17T11:47:05;4.55;;;2.40;;
19727;SDS011;10015;52.530;13.390;2022-10-17T11:49:45;3.15;;;2.05;;
19727;SDS011;10015;52.530;13.390;2022-10-17T11:52:24;3.97;;;2.55;;
19727;SDS011;10015;52.530;13.390;2022-10-17T12:03:16;3.15;;;2.22;;
19727;SDS011;10015;52.530;13.390;2022-10-17T12:05:51;3.70;;;2.70;;
19727;SDS011;10015;52.530;13.390;2022-10-17T12:14:01;4.43;;;2.85;;
19727;SDS011;10015;52.530;13.390;2022-10-17T12:21:25;4.40;;;2.50;;
19727;SDS011;10015;52.530;13.390;2022-10-17T12:23:52;3.10;;;2.30;;
19727;SDS011;10015;52.530;13.390;2022-10-17T12:26:26;3.70;;;2.50;;
19727;SDS011;10015;52.530;13.390;2022-10-17T12:28:54;5.47;;;2.85;;
19727;SDS011;10015;52.530;13.390;2022-10-17T12:31:24;5.47;;;2.67;;
19727;SDS011;10015;52.530;13.390;2022-10-17T12:33:52;6.88;;;2.88;;
19727;SDS011;10015;52.530;13.390;2022-10-17T12:49:38;2.55;;;2.10;;
19727;SDS011;10015;52.530;13.390;2022-10-17T12:54:44;6.40;;;2.80;;
19727;SDS011;10015;52.530;13.390;2022-10-17T13:03:11;4.75;;;2.40;;
19727;SDS011;10015;52.530;13.390;2022-10-17T13:05:39;9.57;;;2.50;;
19727;SDS011;10015;52.530;13.390;2022-10-17T13:08:12;6.63;;;2.40;;
19727;SDS011;10015;52.530;13.390;2022-10-17T13:11:02;3.53;;;2.60;;
19727;SDS011;10015;52.530;13.390;2022-10-17T13:13:49;4.38;;;2.80;;
19727;SDS011;10015;52.530;13.390;2022-10-17T13:16:27;6.38;;;2.63;;
19727;SDS011;10015;52.530;13.390;2022-10-17T13:18:54;7.20;;;2.65;;
19727;SDS011;10015;52.530;13.390;2022-10-17T13:21:20;7.63;;;2.90;;
19727;SDS011;10015;52.530;13.390;2022-10-17T13:23:47;6.55;;;2.50;;
19727;SDS011;10015;52.530;13.390;2022-10-17T13:26:25;3.78;;;2.50;;
19727;SDS011;10015;52.530;13.390;2022-10-17T13:29:12;5.55;;;2.90;;
19727;SDS011;10015;52.530;13.390;2022-10-17T13:31:40;4.80;;;2.67;;
19727;SDS011;10015;52.530;13.390;2022-10-17T13:34:18;6.25;;;2.88;;
19727;SDS011;10015;52.530;13.390;2022-10-17T13:36:53;5.07;;;2.67;;
19727;SDS011;10015;52.530;13.390;2022-10-17T13:39:23;8.75;;;2.50;;
19727;SDS011;10015;52.530;13.390;2022-10-17T13:41:53;8.23;;;3.00;;
19727;SDS011;10015;52.530;13.390;2022-10-17T13:44:22;6.82;;;2.85;;
19727;SDS011;10015;52.530;13.390;2022-10-17T13:46:50;5.65;;;2.80;;
19727;SDS011;10015;52.530;13.390;2022-10-17T13:49:33;4.03;;;2.70;;
19727;SDS011;10015;52.530;13.390;2022-10-17T13:52:01;5.50;;;2.55;;
19727;SDS011;10015;52.530;13.390;2022-10-17T13:54:36;5.10;;;2.55;;
19727;SDS011;10015;52.530;13.390;2022-10-17T13:57:18;5.65;;;2.40;;
19727;SDS011;10015;52.530;13.390;2022-10-17T14:00:32;5.53;;;2.70;;
19727;SDS011;10015;52.530;13.390;2022-10-17T14:02:41;8.48;;;2.97;;
19727;SDS011;10015;52.530;13.390;2022-10-17T14:05:12;7.65;;;2.60;;
19727;SDS011;10015;52.530;13.390;2022-10-17T14:07:54;6.72;;;2.78;;
19727;SDS011;10015;52.530;13.390;2022-10-17T14:10:29;4.55;;;2.55;;
19727;SDS011;10015;52.530;13.390;2022-10-17T14:13:02;8.27;;;2.60;;
19727;SDS011;10015;52.530;13.390;2022-10-17T14:15:33;6.07;;;2.22;;
19727;SDS011;10015;52.530;13.390;2022-10-17T14:18:01;5.78;;;2.60;;
19727;SDS011;10015;52.530;13.390;2022-10-17T14:20:29;5.53;;;2.63;;
19727;SDS011;10015;52.530;13.390;2022-10-17T14:22:57;5.03;;;2.47;;
19727;SDS011;10015;52.530;13.390;2022-10-17T14:25:33;3.95;;;3.30;;
19727;SDS011;10015;52.530;13.390;2022-10-17T14:28:12;4.07;;;2.58;;
19727;SDS011;10015;52.530;13.390;2022-10-17T14:30:47;6.78;;;2.55;;
19727;SDS011;10015;52.530;13.390;2022-10-17T14:33:26;3.97;;;2.38;;
19727;SDS011;10015;52.530;13.390;2022-10-17T14:35:55;4.60;;;2.13;;
19727;SDS011;10015;52.530;13.390;2022-10-17T14:38:24;4.95;;;2.42;;
19727;SDS011;10015;52.530;13.390;2022-10-17T14:40:52;4.15;;;2.30;;
19727;SDS011;10015;52.530;13.390;2022-10-17T14:43:25;7.30;;;2.40;;
19727;SDS011;10015;52.530;13.390;2022-10-17T14:45:57;7.47;;;2.33;;
19727;SDS011;10015;52.530;13.390;2022-10-17T14:48:27;3.90;;;2.42;;
19727;SDS011;10015;52.530;13.390;2022-10-17T14:51:16;4.68;;;2.45;;
19727;SDS011;10015;52.530;13.390;2022-10-17T14:54:33;3.10;;;2.40;;
19727;SDS011;10015;52.530;13.390;2022-10-17T14:56:51;4.45;;;2.33;;
19727;SDS011;10015;52.530;13.390;2022-10-17T14:59:18;7.32;;;2.60;;
19727;SDS011;10015;52.530;13.390;2022-10-17T15:01:48;3.95;;;2.53;;
19727;SDS011;10015;52.530;13.390;2022-10-17T15:04:15;7.25;;;2.83;;
19727;SDS011;10015;52.530;13.390;2022-10-17T15:06:42;4.72;;;2.67;;
19727;SDS011;10015;52.530;13.390;2022-10-17T15:09:09;6.47;;;2.70;;
19727;SDS011;10015;52.530;13.390;2022-10-17T15:11:36;12.98;;;7.70;;
19727;SDS011;10015;52.530;13.390;2022-10-17T15:14:02;7.95;;;3.65;;
19727;SDS011;10015;52.530;13.390;2022-10-17T15:16:32;3.75;;;2.45;;
19727;SDS011;10015;52.530;13.390;2022-10-17T15:18:59;5.05;;;2.65;;
19727;SDS011;10015;52.530;13.390;2022-10-17T15:21:26;5.05;;;2.22;;
19727;SDS011;10015;52.530;13.390;2022-10-17T15:23:53;6.93;;;2.70;;
19727;SDS011;10015;52.530;13.390;2022-10-17T15:26:20;4.45;;;2.70;;
19727;SDS011;10015;52.530;13.390;2022-10-17T15:28:51;7.15;;;3.10;;
19727;SDS011;10015;52.530;13.390;2022-10-17T15:31:20;5.95;;;3.08;;
19727;SDS011;10015;52.530;13.390;2022-10-17T15:33:47;3.92;;;2.75;;
19727;SDS011;10015;52.530;13.390;2022-10-17T15:36:18;6.88;;;3.05;;
19727;SDS011;10015;52.530;13.390;2022-10-17T15:38:50;3.85;;;2.75;;
19727;SDS011;10015;52.530;13.390;2022-10-17T15:41:18;4.97;;;3.00;;
19727;SDS011;10015;52.530;13.390;2022-10-17T15:43:45;4.97;;;2.85;;
19727;SDS011;10015;52.530;13.390;2022-10-17T15:46:13;7.97;;;3.30;;
19727;SDS011;10015;52.530;13.390;2022-10-17T15:48:45;6.40;;;3.13;;
19727;SDS011;10015;52.530;13.390;2022-10-17T15:51:11;3.83;;;2.78;;
19727;SDS011;10015;52.530;13.390;2022-10-17T15:53:37;6.90;;;3.10;;
19727;SDS011;10015;52.530;13.390;2022-10-17T15:56:04;6.97;;;3.08;;
19727;SDS011;10015;52.530;13.390;2022-10-17T15:58:33;9.02;;;3.22;;
19727;SDS011;10015;52.530;13.390;2022-10-17T16:01:01;7.90;;;3.22;;
19727;SDS011;10015;52.530;13.390;2022-10-17T16:03:29;6.90;;;3.22;;
19727;SDS011;10015;52.530;13.390;2022-10-17T16:05:55;9.32;;;3.30;;
19727;SDS011;10015;52.530;13.390;2022-10-17T16:08:22;5.50;;;3.25;;
19727;SDS011;10015;52.530;13.390;2022-10-17T16:10:47;6.15;;;3.42;;
19727;SDS011;10015;52.530;13.390;2022-10-17T16:13:17;8.95;;;3.53;;
19727;SDS011;10015;52.530;13.390;2022-10-17T16:15:46;5.03;;;3.47;;
19727;SDS011;10015;52.530;13.390;2022-10-17T16:18:12;7.40;;;3.78;;
19727;SDS011;10015;52.530;13.390;2022-10-17T16:20:38;7.85;;;3.80;;
19727;SDS011;10015;52.530;13.390;2022-10-17T16:23:05;5.40;;;3.42;;
19727;SDS011;10015;52.530;13.390;2022-10-17T16:25:32;11.77;;;5.30;;
19727;SDS011;10015;52.530;13.390;2022-10-17T16:27:59;9.57;;;4.78;;
19727;SDS011;10015;52.530;13.390;2022-10-17T16:30:26;8.90;;;3.85;;
19727;SDS011;10015;52.530;13.390;2022-10-17T16:32:54;8.35;;;3.45;;
19727;SDS011;10015;52.530;13.390;2022-10-17T16:35:24;6.97;;;3.58;;
19727;SDS011;10015;52.530;13.390;2022-10-17T16:37:53;6.38;;;3.72;;
19727;SDS011;10015;52.530;13.390;2022-10-17T16:40:21;7.82;;;3.38;;
19727;SDS011;10015;52.530;13.390;2022-10-17T16:42:47;6.85;;;3.08;;
19727;SDS011;10015;52.530;13.390;2022-10-17T16:45:17;5.57;;;2.97;;
19727;SDS011;10015;52.530;13.390;2022-10-17T16:47:45;4.60;;;2.90;;
19727;SDS011;10015;52.530;13.390;2022-10-17T16:50:12;5.95;;;3.00;;
19727;SDS011;10015;52.530;13.390;2022-10-17T16:52:39;8.88;;;2.90;;
19727;SDS011;10015;52.530;13.390;2022-10-17T16:55:07;5.07;;;2.78;;
19727;SDS011;10015;52.530;13.390;2022-10-17T16:57:34;3.97;;;2.95;;
19727;SDS011;10015;52.530;13.390;2022-10-17T17:00:00;5.93;;;2.95;;
19727;SDS011;10015;52.530;13.390;2022-10-17T17:02:26;5.72;;;2.67;;
19727;SDS011;10015;52.530;13.390;2022-10-17T17:04:55;5.85;;;3.38;;
19727;SDS011;10015;52.530;13.390;2022-10-17T17:07:30;5.60;;;3.58;;
19727;SDS011;10015;52.530;13.390;2022-10-17T17:09:57;8.23;;;3.75;;
19727;SDS011;10015;52.530;13.390;2022-10-17T17:12:23;9.13;;;3.72;;
19727;SDS011;10015;52.530;13.390;2022-10-17T17:14:49;10.02;;;3.47;;
19727;SDS011;10015;52.530;13.390;2022-10-17T17:17:15;7.75;;;3.75;;
19727;SDS011;10015;52.530;13.390;2022-10-17T17:19:44;8.65;;;3.72;;
19727;SDS011;10015;52.530;13.390;2022-10-17T17:22:11;8.35;;;4.07;;
19727;SDS011;10015;52.530;13.390;2022-10-17T17:24:37;9.45;;;3.78;;
19727;SDS011;10015;52.530;13.390;2022-10-17T17:27:03;9.75;;;4.43;;
19727;SDS011;10015;52.530;13.390;2022-10-17T17:29:29;11.07;;;5.05;;
19727;SDS011;10015;52.530;13.390;2022-10-17T17:31:56;10.73;;;5.80;;
19727;SDS011;10015;52.530;13.390;2022-10-17T17:34:22;13.88;;;7.78;;
19727;SDS011;10015;52.530;13.390;2022-10-17T17:36:48;12.45;;;6.57;;
19727;SDS011;10015;52.530;13.390;2022-10-17T17:39:14;11.60;;;4.85;;
19727;SDS011;10015;52.530;13.390;2022-10-17T17:41:41;9.70;;;4.63;;
19727;SDS011;10015;52.530;13.390;2022-10-17T17:44:09;11.63;;;4.00;;
19727;SDS011;10015;52.530;13.390;2022-10-17T17:46:37;10.27;;;4.00;;
19727;SDS011;10015;52.530;13.390;2022-10-17T17:49:03;9.43;;;3.72;;
19727;SDS011;10015;52.530;13.390;2022-10-17T17:51:30;12.23;;;5.80;;
19727;SDS011;10015;52.530;13.390;2022-10-17T17:53:58;11.90;;;5.70;;
19727;SDS011;10015;52.530;13.390;2022-10-17T17:56:26;8.57;;;6.10;;
19727;SDS011;10015;52.530;13.390;2022-10-17T17:58:59;7.70;;;5.03;;
19727;SDS011;10015;52.530;13.390;2022-10-17T18:01:28;8.95;;;4.53;;
19727;SDS011;10015;52.530;13.390;2022-10-17T18:03:55;8.68;;;4.90;;
19727;SDS011;10015;52.530;13.390;2022-10-17T18:06:26;7.57;;;4.18;;
19727;SDS011;10015;52.530;13.390;2022-10-17T18:08:54;8.90;;;4.47;;
19727;SDS011;10015;52.530;13.390;2022-10-17T18:11:26;8.25;;;4.20;;
19727;SDS011;10015;52.530;13.390;2022-10-17T18:13:53;8.50;;;4.72;;
19727;SDS011;10015;52.530;13.390;2022-10-17T18:16:23;11.03;;;4.50;;
19727;SDS011;10015;52.530;13.390;2022-10-17T18:18:50;11.00;;;4.80;;
19727;SDS011;10015;52.530;13.390;2022-10-17T18:21:15;9.30;;;4.10;;
19727;SDS011;10015;52.530;13.390;2022-10-17T18:23:42;9.75;;;4.57;;
19727;SDS011;10015;52.530;13.390;2022-10-17T18:26:10;6.65;;;3.95;;
19727;SDS011;10015;52.530;13.390;2022-10-17T18:28:37;11.63;;;4.60;;
19727;SDS011;10015;52.530;13.390;2022-10-17T18:31:05;11.20;;;5.00;;
19727;SDS011;10015;52.530;13.390;2022-10-17T18:33:33;8.63;;;4.90;;
19727;SDS011;10015;52.530;13.390;2022-10-17T18:36:06;6.80;;;4.20;;
19727;SDS011;10015;52.530;13.390;2022-10-17T18:38:34;8.00;;;4.17;;
19727;SDS011;10015;52.530;13.390;2022-10-17T18:41:02;8.73;;;4.55;;
19727;SDS011;10015;52.530;13.390;2022-10-17T18:43:30;7.93;;;4.37;;
19727;SDS011;10015;52.530;13.390;2022-10-17T18:46:02;8.30;;;4.90;;
19727;SDS011;10015;52.530;13.390;2022-10-17T18:48:33;9.88;;;4.50;;
19727;SDS011;10015;52.530;13.390;2022-10-17T18:51:00;10.37;;;5.17;;
19727;SDS011;10015;52.530;13.390;2022-10-17T18:53:26;8.40;;;4.80;;
19727;SDS011;10015;52.530;13.390;2022-10-17T18:55:53;9.50;;;4.68;;
19727;SDS011;10015;52.530;13.390;2022-10-17T18:58:20;9.98;;;5.03;;
19727;SDS011;10015;52.530;13.390;2022-10-17T19:00:48;9.60;;;4.90;;
19727;SDS011;10015;52.530;13.390;2022-10-17T19:03:15;11.10;;;5.78;;
19727;SDS011;10015;52.530;13.390;2022-10-17T19:05:41;9.70;;;5.00;;
19727;SDS011;10015;52.530;13.390;2022-10-17T19:08:10;10.23;;;5.93;;
19727;SDS011;10015;52.530;13.390;2022-10-17T19:10:37;10.53;;;5.83;;
19727;SDS011;10015;52.530;13.390;2022-10-17T19:13:03;9.63;;;4.97;;
19727;SDS011;10015;52.530;13.390;2022-10-17T19:15:29;10.23;;;5.60;;
19727;SDS011;10015;52.530;13.390;2022-10-17T19:17:56;8.30;;;4.63;;
19727;SDS011;10015;52.530;13.390;2022-10-17T19:20:23;9.47;;;5.30;;
19727;SDS011;10015;52.530;13.390;2022-10-17T19:22:49;14.10;;;6.00;;
19727;SDS011;10015;52.530;13.390;2022-10-17T19:25:15;9.77;;;4.90;;
19727;SDS011;10015;52.530;13.390;2022-10-17T19:27:41;8.30;;;4.60;;
19727;SDS011;10015;52.530;13.390;2022-10-17T19:30:07;9.37;;;5.10;;
19727;SDS011;10015;52.530;13.390;2022-10-17T19:32:35;9.87;;;4.60;;
19727;SDS011;10015;52.530;13.390;2022-10-17T19:35:03;8.47;;;4.47;;
19727;SDS011;10015;52.530;13.390;2022-10-17T19:37:30;10.03;;;5.30;;
19727;SDS011;10015;52.530;13.390;2022-10-17T19:39:56;8.50;;;5.07;;
19727;SDS011;10015;52.530;13.390;2022-10-17T19:42:23;9.77;;;4.70;;
19727;SDS011;10015;52.530;13.390;2022-10-17T19:44:49;8.60;;;4.63;;
19727;SDS011;10015;52.530;13.390;2022-10-17T19:47:15;8.60;;;5.00;;
19727;SDS011;10015;52.530;13.390;2022-10-17T19:49:41;7.70;;;4.70;;
19727;SDS011;10015;52.530;13.390;2022-10-17T19:52:06;9.83;;;4.97;;
19727;SDS011;10015;52.530;13.390;2022-10-17T19:54:32;9.37;;;5.10;;
19727;SDS011;10015;52.530;13.390;2022-10-17T19:56:58;16.77;;;10.57;;
19727;SDS011;10015;52.530;13.390;2022-10-17T19:59:24;18.43;;;11.30;;
19727;SDS011;10015;52.530;13.390;2022-10-17T20:01:50;18.30;;;9.97;;
19727;SDS011;10015;52.530;13.390;2022-10-17T20:04:16;33.77;;;19.13;;
19727;SDS011;10015;52.530;13.390;2022-10-17T20:06:44;20.13;;;11.73;;
19727;SDS011;10015;52.530;13.390;2022-10-17T20:09:10;22.80;;;13.73;;
19727;SDS011;10015;52.530;13.390;2022-10-17T20:11:37;14.47;;;7.00;;
19727;SDS011;10015;52.530;13.390;2022-10-17T20:14:04;13.53;;;6.03;;
19727;SDS011;10015;52.530;13.390;2022-10-17T20:16:32;11.93;;;5.73;;
19727;SDS011;10015;52.530;13.390;2022-10-17T20:19:04;12.27;;;5.47;;
19727;SDS011;10015;52.530;13.390;2022-10-17T20:21:32;8.40;;;5.00;;
19727;SDS011;10015;52.530;13.390;2022-10-17T20:24:01;8.47;;;5.13;;
19727;SDS011;10015;52.530;13.390;2022-10-17T20:26:29;9.73;;;5.03;;
19727;SDS011;10015;52.530;13.390;2022-10-17T20:28:56;9.03;;;4.83;;